Time;durP1;ratioP1;P1;durP2;ratioP2;P2;SDS_P1;SDS_P2;PMS_P1;PMS_P2;Temp;Humidity;BMP_temperature;BMP_pressure;BME280_temperature;BME280_humidity;BME280_pressure;Samples;Min_cycle;Max_cycle;Signal;HPM_P1;HPM_P2
2024/01/23 00:01:56;;;;;;;6.37;4.93;;;4.60;40.00;;;;;;8398391;28;20267;-61
2024/01/23 00:05:56;;;;;;;10.27;4.90;;;4.60;3.70;;;;;;8398402;28;20184;-60
2024/01/23 00:09:57;;;;;;;8.33;5.17;;;4.50;1.00;;;;;;8397112;28;20181;-60
2024/01/23 00:13:58;;;;;;;8.83;4.80;;;4.30;1.00;;;;;;8392135;28;20181;-62
2024/01/23 00:17:59;;;;;;;8.80;4.97;;;4.20;1.00;;;;;;8390144;28;20208;-62
2024/01/23 00:22:00;;;;;;;7.50;4.90;;;4.10;99.90;;;;;;8399544;28;20181;-61
2024/01/23 00:26:00;;;;;;;8.13;4.20;;;4.00;99.90;;;;;;8393840;28;20277;-62
2024/01/23 00:30:01;;;;;;;10.03;4.23;;;4.10;1.00;;;;;;8392836;28;20189;-61
2024/01/23 00:34:02;;;;;;;6.03;4.30;;;4.20;1.00;;;;;;8392143;28;20197;-62
2024/01/23 00:38:03;;;;;;;6.97;4.27;;;4.40;99.90;;;;;;8392904;28;20228;-62
2024/01/23 00:42:06;;;;;;;7.97;4.87;;;4.60;99.90;;;;;;8392520;28;20192;-62
2024/01/23 00:46:08;;;;;;;8.03;4.70;;;4.90;99.90;;;;;;8393975;28;20252;-62
2024/01/23 00:50:09;;;;;;;6.87;3.90;;;4.90;99.90;;;;;;8390961;28;20231;-62
2024/01/23 00:54:09;;;;;;;4.87;3.57;;;4.90;1.00;;;;;;8390134;28;20189;-65
2024/01/23 00:58:11;;;;;;;9.60;3.73;;;5.00;99.90;;;;;;8404506;28;20209;-62
2024/01/23 01:02:12;;;;;;;6.73;3.40;;;5.00;1.00;;;;;;8401895;28;20189;-62
2024/01/23 01:06:13;;;;;;;5.23;3.20;;;4.90;42.10;;;;;;8392058;28;20191;-62
2024/01/23 01:10:14;;;;;;;5.97;3.00;;;4.90;56.60;;;;;;8400027;28;20184;-62
2024/01/23 01:14:15;;;;;;;5.67;2.83;;;4.90;1.00;;;;;;8387225;28;20191;-62
2024/01/23 01:18:15;;;;;;;7.77;3.53;;;4.90;1.00;;;;;;8393406;28;20287;-62
2024/01/23 01:22:16;;;;;;;4.40;2.53;;;4.90;1.00;;;;;;8396056;28;20183;-62
2024/01/23 01:26:17;;;;;;;7.60;2.97;;;4.80;1.00;;;;;;8405194;28;20198;-62
2024/01/23 01:30:17;;;;;;;6.83;2.73;;;4.70;1.00;;;;;;8392878;28;20187;-62
2024/01/23 01:34:18;;;;;;;7.43;3.40;;;4.60;1.00;;;;;;8394208;28;20327;-61
2024/01/23 01:38:19;;;;;;;6.20;3.13;;;4.50;1.00;;;;;;8392701;28;20205;-61
2024/01/23 01:42:20;;;;;;;6.17;2.70;;;4.50;1.00;;;;;;8396885;28;20184;-61
2024/01/23 01:46:26;;;;;;;5.43;2.83;;;4.50;1.00;;;;;;8394306;28;20191;-61
2024/01/23 01:50:27;;;;;;;8.83;3.10;;;4.50;1.00;;;;;;8390312;28;20214;-61
2024/01/23 01:54:29;;;;;;;9.07;3.27;;;4.50;1.00;;;;;;8397036;28;20195;-61
2024/01/23 01:58:31;;;;;;;6.60;2.97;;;4.60;1.00;;;;;;8395511;28;20228;-60
2024/01/23 02:02:40;;;;;;;7.87;3.00;;;4.80;99.90;;;;;;8393905;28;20535;-61
2024/01/23 02:06:40;;;;;;;5.70;2.83;;;4.90;99.90;;;;;;8393355;28;20180;-61
2024/01/23 02:10:41;;;;;;;5.00;3.03;;;5.00;99.90;;;;;;8388810;28;20192;-61
2024/01/23 02:14:42;;;;;;;6.17;2.50;;;4.90;99.90;;;;;;8393058;28;20204;-61
2024/01/23 02:18:43;;;;;;;5.20;2.50;;;4.80;99.90;;;;;;8395680;28;20220;-62
2024/01/23 02:22:44;;;;;;;7.80;3.03;;;4.70;99.90;;;;;;8413502;28;20184;-61
2024/01/23 02:26:45;;;;;;;5.17;2.77;;;4.60;99.90;;;;;;8394598;28;20283;-61
2024/01/23 02:30:45;;;;;;;6.93;2.60;;;4.50;99.90;;;;;;8396760;28;20180;-61
2024/01/23 02:34:46;;;;;;;5.57;2.57;;;4.40;99.90;;;;;;8398680;28;20215;-62
2024/01/23 02:38:47;;;;;;;11.07;3.00;;;4.30;99.90;;;;;;8397736;28;20216;-61
2024/01/23 02:42:47;;;;;;;6.87;2.63;;;4.30;99.90;;;;;;8398263;28;20181;-62
2024/01/23 02:46:48;;;;;;;5.37;3.00;;;4.40;99.90;;;;;;8396903;28;20281;-62
2024/01/23 02:50:49;;;;;;;4.30;2.33;;;4.50;99.90;;;;;;8400732;28;20185;-62
2024/01/23 02:54:49;;;;;;;6.53;3.10;;;4.50;99.90;;;;;;8399715;28;20180;-62
2024/01/23 02:58:50;;;;;;;7.10;2.87;;;4.60;99.90;;;;;;8395776;28;20602;-62
2024/01/23 03:02:51;;;;;;;6.97;2.40;;;4.70;99.90;;;;;;8396114;28;20231;-62
2024/01/23 03:06:51;;;;;;;6.83;2.70;;;4.80;99.90;;;;;;8396370;28;20263;-62
2024/01/23 03:10:52;;;;;;;5.70;3.40;;;4.80;99.90;;;;;;8400091;28;20188;-62
2024/01/23 03:14:53;;;;;;;6.70;2.57;;;4.80;92.80;;;;;;8399392;28;20193;-62
2024/01/23 03:18:53;;;;;;;12.00;3.10;;;4.90;68.10;;;;;;8397320;28;20216;-62
2024/01/23 03:22:54;;;;;;;4.53;2.10;;;4.90;53.40;;;;;;8396318;28;20196;-61
2024/01/23 03:26:55;;;;;;;8.17;2.40;;;4.90;38.20;;;;;;8399016;28;20273;-62
2024/01/23 03:30:56;;;;;;;5.70;2.53;;;5.00;25.90;;;;;;8395956;28;20290;-62
2024/01/23 03:34:56;;;;;;;7.23;2.80;;;5.00;17.90;;;;;;8393112;28;20197;-62
2024/01/23 03:38:57;;;;;;;4.47;2.47;;;5.00;10.00;;;;;;8396511;28;20220;-62
2024/01/23 03:42:58;;;;;;;5.50;2.80;;;5.10;1.00;;;;;;8397592;28;20189;-62
2024/01/23 03:46:59;;;;;;;8.77;2.80;;;5.20;1.00;;;;;;8395881;28;20210;-62
2024/01/23 03:51:00;;;;;;;3.97;2.40;;;5.30;1.00;;;;;;8395978;28;20244;-62
2024/01/23 03:55:01;;;;;;;7.87;2.13;;;5.30;30.00;;;;;;8390698;28;20188;-59
2024/01/23 03:59:01;;;;;;;4.13;1.63;;;5.20;99.90;;;;;;8396054;28;20311;-62
2024/01/23 04:03:03;;;;;;;7.37;1.83;;;5.10;99.90;;;;;;8392767;28;20527;-62
2024/01/23 04:07:03;;;;;;;5.63;1.77;;;5.10;99.90;;;;;;8391041;28;20269;-61
2024/01/23 04:11:04;;;;;;;6.97;1.97;;;5.00;99.90;;;;;;8397016;28;20184;-62
2024/01/23 04:15:05;;;;;;;11.10;2.10;;;5.00;99.90;;;;;;8391567;28;20178;-61
2024/01/23 04:19:06;;;;;;;7.03;2.10;;;4.90;99.90;;;;;;8393064;28;20208;-61
2024/01/23 04:23:06;;;;;;;6.03;1.90;;;4.80;99.90;;;;;;8390761;28;20219;-62
2024/01/23 04:27:07;;;;;;;7.40;1.93;;;4.80;1.00;;;;;;8389030;28;20196;-62
2024/01/23 04:31:08;;;;;;;6.27;1.70;;;4.70;15.00;;;;;;8397341;28;20188;-61
2024/01/23 04:35:09;;;;;;;4.63;1.50;;;4.60;99.90;;;;;;8388783;28;20197;-61
2024/01/23 04:39:09;;;;;;;9.13;1.80;;;4.50;99.90;;;;;;8392084;28;20276;-61
2024/01/23 04:43:13;;;;;;;5.07;1.60;;;4.50;99.90;;;;;;8391699;28;20182;-61
2024/01/23 04:47:14;;;;;;;6.43;2.03;;;4.50;99.90;;;;;;8391090;28;20260;-60
2024/01/23 04:51:14;;;;;;;8.70;2.37;;;4.50;99.90;;;;;;8390339;28;20287;-61
2024/01/23 04:55:15;;;;;;;6.03;1.87;;;4.40;99.90;;;;;;8393202;28;20176;-61
2024/01/23 04:59:16;;;;;;;5.10;2.10;;;4.40;99.90;;;;;;8394705;28;20212;-60
2024/01/23 05:03:16;;;;;;;4.17;2.00;;;4.30;99.90;;;;;;8390821;28;20181;-62
2024/01/23 05:07:17;;;;;;;6.10;2.40;;;4.30;99.90;;;;;;8389964;28;20181;-62
2024/01/23 05:11:18;;;;;;;6.60;2.73;;;4.30;99.90;;;;;;8391061;28;20217;-61
2024/01/23 05:15:18;;;;;;;7.10;2.73;;;4.30;99.90;;;;;;8392139;28;20195;-60
2024/01/23 05:19:19;;;;;;;5.43;2.40;;;4.30;99.90;;;;;;8395285;28;20197;-60
2024/01/23 05:23:20;;;;;;;8.40;2.63;;;4.30;1.00;;;;;;8389050;28;20284;-61
2024/01/23 05:27:21;;;;;;;14.83;3.70;;;4.30;18.60;;;;;;8388002;28;20204;-62
2024/01/23 05:31:21;;;;;;;14.93;2.90;;;4.20;94.00;;;;;;8389744;28;20188;-61
2024/01/23 05:35:22;;;;;;;9.50;2.50;;;4.10;85.50;;;;;;8393614;28;20200;-61
2024/01/23 05:39:23;;;;;;;9.17;2.33;;;4.10;99.90;;;;;;8386631;28;20212;-61
2024/01/23 05:43:24;;;;;;;5.70;2.23;;;4.10;99.90;;;;;;8387370;28;20177;-61
2024/01/23 05:47:25;;;;;;;7.53;2.20;;;4.00;99.90;;;;;;8393846;28;20192;-61
2024/01/23 05:51:25;;;;;;;6.77;1.90;;;4.00;99.90;;;;;;8388511;28;20263;-61
2024/01/23 05:55:26;;;;;;;8.97;1.80;;;3.90;99.90;;;;;;8388290;28;20183;-62
2024/01/23 05:59:26;;;;;;;5.33;1.43;;;3.90;99.90;;;;;;8391456;28;20211;-61
2024/01/23 06:03:27;;;;;;;7.83;1.97;;;3.90;99.90;;;;;;8391337;28;20216;-61
2024/01/23 06:07:28;;;;;;;6.53;2.20;;;3.80;99.90;;;;;;8388964;28;20210;-62
2024/01/23 06:11:29;;;;;;;3.57;1.43;;;3.70;99.90;;;;;;8387294;28;20263;-62
2024/01/23 06:15:30;;;;;;;3.37;1.33;;;3.70;99.90;;;;;;8389866;28;20205;-62
2024/01/23 06:19:31;;;;;;;3.47;0.70;;;3.70;99.90;;;;;;8390684;28;20201;-61
2024/01/23 06:23:32;;;;;;;3.63;1.43;;;3.70;99.90;;;;;;8388914;28;20193;-63
2024/01/23 06:27:33;;;;;;;3.70;1.00;;;3.80;99.90;;;;;;8396696;28;20196;-62
2024/01/23 06:31:34;;;;;;;5.80;1.30;;;3.80;99.90;;;;;;8387836;28;20212;-62
2024/01/23 06:35:36;;;;;;;3.43;1.20;;;3.80;99.90;;;;;;8392523;28;20235;-62
2024/01/23 06:39:36;;;;;;;4.50;1.40;;;3.80;99.90;;;;;;8393322;28;20299;-62
2024/01/23 06:43:37;;;;;;;4.73;1.50;;;3.80;99.90;;;;;;8388234;28;20191;-62
2024/01/23 06:47:38;;;;;;;6.53;1.60;;;3.80;99.90;;;;;;8387714;28;20223;-61
2024/01/23 06:51:39;;;;;;;2.80;1.37;;;3.70;77.60;;;;;;8392384;28;20234;-62
2024/01/23 06:55:39;;;;;;;2.70;1.33;;;3.70;1.00;;;;;;8382820;28;20397;-62
2024/01/23 06:59:40;;;;;;;5.90;1.80;;;3.70;1.00;;;;;;8390948;28;20220;-64
2024/01/23 07:03:41;;;;;;;6.57;1.60;;;3.70;1.00;;;;;;8392912;28;20193;-64
2024/01/23 07:07:42;;;;;;;4.17;1.40;;;3.70;1.00;;;;;;8397807;28;20200;-64
2024/01/23 07:11:43;;;;;;;6.33;1.50;;;3.60;1.00;;;;;;8396987;28;20286;-64
2024/01/23 07:15:44;;;;;;;5.30;2.00;;;3.60;1.00;;;;;;8398306;28;20181;-64
2024/01/23 07:19:45;;;;;;;3.50;1.50;;;3.50;1.00;;;;;;8393992;28;20438;-64
2024/01/23 07:23:45;;;;;;;2.93;1.60;;;3.40;1.00;;;;;;8398622;28;20192;-64
2024/01/23 07:27:46;;;;;;;4.13;1.80;;;3.50;88.00;;;;;;8396065;28;20253;-64
2024/01/23 07:31:47;;;;;;;5.30;2.00;;;3.60;99.90;;;;;;8393672;28;20219;-63
2024/01/23 07:35:49;;;;;;;4.50;1.97;;;3.60;99.90;;;;;;8393492;28;20242;-64
2024/01/23 07:39:51;;;;;;;5.73;1.70;;;3.60;99.90;;;;;;8393562;28;20248;-63
2024/01/23 07:43:52;;;;;;;5.07;1.43;;;3.70;99.90;;;;;;8394207;28;20207;-63
2024/01/23 07:47:52;;;;;;;3.20;1.47;;;3.70;99.90;;;;;;8388901;28;20207;-63
2024/01/23 07:51:53;;;;;;;5.30;1.23;;;3.80;99.90;;;;;;8394566;28;20196;-63
2024/01/23 07:55:54;;;;;;;7.70;1.60;;;3.70;1.00;;;;;;8390184;28;20197;-66
2024/01/23 07:59:55;;;;;;;5.23;1.50;;;3.80;99.90;;;;;;8392235;28;20232;-63
2024/01/23 08:03:57;;;;;;;4.60;1.93;;;3.90;1.00;;;;;;8392716;28;20263;-62
2024/01/23 08:07:58;;;;;;;7.50;1.97;;;3.90;1.00;;;;;;8391021;28;20760;-65
2024/01/23 08:11:58;;;;;;;7.13;1.53;;;4.10;99.90;;;;;;8389929;28;20189;-63
2024/01/23 08:15:59;;;;;;;5.33;1.80;;;4.20;34.70;;;;;;8389665;28;20192;-64
2024/01/23 08:20:00;;;;;;;8.20;1.33;;;4.30;1.00;;;;;;8394888;28;20247;-63
2024/01/23 08:24:01;;;;;;;7.80;1.60;;;4.40;1.00;;;;;;8393144;28;20607;-64
2024/01/23 08:28:02;;;;;;;3.37;1.20;;;4.50;99.90;;;;;;8392159;28;20184;-65
2024/01/23 08:32:03;;;;;;;3.20;1.50;;;4.60;1.00;;;;;;8389482;28;20184;-63
2024/01/23 08:36:04;;;;;;;5.90;1.20;;;4.60;1.00;;;;;;8391767;28;20201;-63
2024/01/23 08:40:06;;;;;;;4.50;1.47;;;4.70;1.00;;;;;;8391937;28;20246;-63
2024/01/23 08:44:07;;;;;;;2.13;1.40;;;4.80;99.90;;;;;;8393797;28;20216;-64
2024/01/23 08:48:08;;;;;;;4.70;1.33;;;4.80;99.90;;;;;;8389396;28;20355;-63
2024/01/23 08:52:09;;;;;;;5.03;1.20;;;4.70;99.90;;;;;;8388894;28;20271;-62
2024/01/23 08:56:10;;;;;;;5.00;1.30;;;4.60;99.90;;;;;;8390195;28;20296;-62
2024/01/23 09:00:12;;;;;;;3.10;1.63;;;4.60;99.90;;;;;;8392152;28;20215;-63
2024/01/23 09:04:13;;;;;;;7.90;1.57;;;4.70;99.90;;;;;;8392895;28;20536;-64
2024/01/23 09:08:13;;;;;;;3.40;1.20;;;4.80;99.90;;;;;;8390941;28;20254;-64
2024/01/23 09:12:16;;;;;;;3.50;1.37;;;5.00;99.90;;;;;;8393582;28;20224;-63
2024/01/23 09:16:17;;;;;;;4.17;1.27;;;5.30;99.90;;;;;;8391001;28;20181;-63
2024/01/23 09:20:18;;;;;;;4.83;1.73;;;5.60;99.90;;;;;;8392201;28;20176;-63
2024/01/23 09:24:18;;;;;;;3.70;1.10;;;5.90;63.50;;;;;;8397380;28;20328;-64
2024/01/23 09:28:19;;;;;;;5.27;1.50;;;6.00;13.60;;;;;;8390939;28;20181;-63
2024/01/23 09:32:22;;;;;;;5.97;1.20;;;6.00;1.00;;;;;;8392926;28;20216;-64
2024/01/23 09:36:23;;;;;;;4.33;1.10;;;6.10;1.00;;;;;;8389865;28;20289;-65
2024/01/23 09:40:24;;;;;;;7.90;1.60;;;6.00;1.00;;;;;;8396820;28;20184;-64
2024/01/23 09:44:24;;;;;;;4.93;1.47;;;6.10;1.00;;;;;;8391073;28;20267;-67
2024/01/23 09:48:26;;;;;;;5.40;1.47;;;6.30;1.00;;;;;;8390176;28;20310;-63
2024/01/23 09:52:27;;;;;;;5.93;1.10;;;6.40;1.00;;;;;;8390253;28;20181;-64
2024/01/23 09:56:28;;;;;;;2.40;1.10;;;6.30;1.00;;;;;;8400840;28;20240;-63
2024/01/23 10:00:29;;;;;;;5.30;1.30;;;6.30;1.00;;;;;;8390791;28;20197;-64
2024/01/23 10:04:32;;;;;;;6.80;1.20;;;6.30;1.00;;;;;;8391293;28;20228;-66
2024/01/23 10:08:33;;;;;;;3.53;1.50;;;6.30;1.00;;;;;;8395083;28;20248;-65
2024/01/23 10:12:34;;;;;;;6.23;1.67;;;6.30;1.00;;;;;;8390574;28;20250;-65
2024/01/23 10:16:39;;;;;;;5.93;1.53;;;6.30;1.00;;;;;;8396464;28;20208;-65
2024/01/23 10:20:40;;;;;;;5.20;1.40;;;6.30;1.00;;;;;;8392008;28;20210;-64
2024/01/23 10:24:40;;;;;;;4.47;0.90;;;6.20;1.00;;;;;;8391277;28;20191;-64
2024/01/23 10:28:45;;;;;;;5.47;1.53;;;6.20;1.00;;;;;;8386928;28;20204;-65
2024/01/23 10:32:46;;;;;;;4.63;1.53;;;6.30;1.00;;;;;;8390403;28;20552;-68
2024/01/23 10:36:49;;;;;;;3.10;1.17;;;6.20;1.00;;;;;;8391658;28;20200;-64
2024/01/23 10:40:51;;;;;;;3.83;1.10;;;6.30;1.00;;;;;;8395295;28;20189;-64
2024/01/23 10:44:53;;;;;;;5.07;1.00;;;6.40;1.00;;;;;;8390277;28;20449;-64
2024/01/23 10:48:54;;;;;;;5.63;1.40;;;6.50;1.00;;;;;;8396440;28;20196;-65
2024/01/23 10:53:01;;;;;;;3.83;1.10;;;6.60;1.00;;;;;;8392420;28;20219;-64
2024/01/23 10:57:07;;;;;;;8.07;2.10;;;6.60;1.00;;;;;;8400564;28;20280;-65
2024/01/23 11:01:11;;;;;;;5.73;1.17;;;6.70;1.00;;;;;;8393756;28;20197;-64
2024/01/23 11:05:12;;;;;;;6.20;1.83;;;6.60;1.00;;;;;;8398280;28;21128;-64
2024/01/23 11:09:18;;;;;;;4.57;1.40;;;6.60;1.00;;;;;;8390310;28;20231;-64
2024/01/23 11:13:30;;;;;;;3.40;1.30;;;6.60;1.00;;;;;;8392875;28;20180;-65
2024/01/23 11:17:35;;;;;;;5.83;1.50;;;6.60;1.00;;;;;;8389228;28;20192;-67
2024/01/23 11:21:37;;;;;;;4.40;1.37;;;6.70;1.00;;;;;;8397820;28;20189;-65
2024/01/23 11:25:57;;;;;;;5.73;1.70;;;6.80;1.00;;;;;;8396290;28;20210;-67
2024/01/23 11:29:59;;;;;;;3.93;1.40;;;6.70;1.00;;;;;;8403440;28;20192;-66
2024/01/23 11:34:21;;;;;;;3.93;1.37;;;6.70;1.00;;;;;;8401263;28;20201;-66
2024/01/23 11:38:22;;;;;;;5.70;1.60;;;6.90;1.00;;;;;;8408223;27;20203;-65
2024/01/23 11:42:35;;;;;;;6.47;1.67;;;6.80;1.00;;;;;;8393677;28;20255;-66
2024/01/23 11:46:36;;;;;;;6.60;1.73;;;6.80;1.00;;;;;;8395488;28;20269;-65
2024/01/23 11:50:38;;;;;;;6.10;1.40;;;6.80;1.00;;;;;;8392336;28;20255;-64
2024/01/23 11:54:39;;;;;;;6.67;1.40;;;6.80;1.00;;;;;;8400509;28;20280;-65
2024/01/23 11:58:43;;;;;;;9.07;1.70;;;6.90;1.00;;;;;;8395650;28;20221;-64
2024/01/23 12:02:45;;;;;;;5.60;1.40;;;6.90;1.00;;;;;;8390858;28;20352;-65
2024/01/23 12:06:46;;;;;;;6.53;1.90;;;6.90;1.00;;;;;;8390135;28;20188;-66
2024/01/23 12:10:47;;;;;;;6.00;1.60;;;6.80;1.00;;;;;;8388746;28;20282;-64
2024/01/23 12:14:48;;;;;;;4.73;1.87;;;6.80;1.00;;;;;;8393618;28;20268;-65
2024/01/23 12:18:56;;;;;;;8.20;1.80;;;6.70;1.00;;;;;;8394397;28;20625;-66
2024/01/23 12:22:57;;;;;;;4.40;1.53;;;6.60;1.00;;;;;;8390787;28;20189;-64
2024/01/23 12:26:58;;;;;;;7.27;1.83;;;6.70;1.00;;;;;;8391666;28;20298;-63
2024/01/23 12:30:59;;;;;;;8.23;2.07;;;6.80;1.00;;;;;;8391752;28;20182;-65
2024/01/23 12:34:59;;;;;;;9.00;1.70;;;6.80;1.00;;;;;;8390612;28;20378;-67
2024/01/23 12:39:01;;;;;;;6.20;1.70;;;6.70;1.00;;;;;;8390532;28;20218;-65
2024/01/23 12:43:01;;;;;;;4.63;1.70;;;6.60;1.00;;;;;;8389027;28;20185;-64
2024/01/23 12:47:07;;;;;;;10.30;2.43;;;6.70;1.00;;;;;;8390445;28;20189;-65
2024/01/23 12:51:08;;;;;;;10.00;2.00;;;6.70;1.00;;;;;;8389119;28;20195;-64
2024/01/23 12:55:09;;;;;;;8.27;1.63;;;6.60;1.00;;;;;;8393835;28;20212;-63
2024/01/23 12:59:10;;;;;;;7.60;1.90;;;6.60;1.00;;;;;;8386200;28;20228;-62
2024/01/23 13:03:15;;;;;;;10.30;1.93;;;6.40;1.00;;;;;;8389955;28;20204;-64
2024/01/23 13:07:15;;;;;;;12.00;1.83;;;6.40;1.00;;;;;;8393637;28;20219;-64
2024/01/23 13:11:16;;;;;;;4.27;1.60;;;6.30;1.00;;;;;;8389228;28;20215;-64
2024/01/23 13:15:17;;;;;;;8.40;1.60;;;6.30;1.00;;;;;;8384496;28;20188;-63
2024/01/23 13:19:19;;;;;;;4.20;1.60;;;6.30;1.00;;;;;;8391213;28;20212;-62
2024/01/23 13:23:20;;;;;;;5.77;1.73;;;6.30;1.00;;;;;;8378184;28;20191;-63
2024/01/23 13:27:21;;;;;;;9.10;1.80;;;6.30;1.00;;;;;;8404886;28;20367;-64
2024/01/23 13:31:24;;;;;;;4.87;1.60;;;6.40;1.00;;;;;;8393190;28;20193;-64
2024/01/23 13:35:26;;;;;;;11.43;2.57;;;6.30;1.00;;;;;;8387366;28;21657;-63
2024/01/23 13:39:26;;;;;;;7.67;2.50;;;6.20;1.00;;;;;;8386769;28;20204;-63
2024/01/23 13:43:29;;;;;;;10.90;2.20;;;6.20;1.00;;;;;;8393251;28;20216;-64
2024/01/23 13:47:30;;;;;;;7.97;1.83;;;6.30;1.00;;;;;;8387194;28;20194;-66
2024/01/23 13:51:31;;;;;;;6.10;1.70;;;6.30;1.00;;;;;;8390540;28;20192;-64
2024/01/23 13:55:32;;;;;;;8.67;2.20;;;6.20;1.00;;;;;;8391025;28;20221;-62
2024/01/23 13:59:33;;;;;;;8.90;2.23;;;6.30;1.00;;;;;;8389175;28;20219;-65
2024/01/23 14:03:34;;;;;;;12.57;2.30;;;6.20;1.00;;;;;;8389072;28;20184;-65
2024/01/23 14:07:36;;;;;;;7.27;2.30;;;6.20;1.00;;;;;;8392432;28;20193;-65
2024/01/23 14:11:37;;;;;;;4.83;2.27;;;6.20;1.00;;;;;;8393907;28;20208;-63
2024/01/23 14:15:37;;;;;;;6.47;1.97;;;6.20;1.00;;;;;;8394044;28;20181;-64
2024/01/23 14:19:38;;;;;;;10.03;1.93;;;6.10;1.00;;;;;;8388119;28;20236;-65
2024/01/23 14:23:39;;;;;;;6.87;2.33;;;6.10;1.00;;;;;;8391919;28;20185;-64
2024/01/23 14:27:42;;;;;;;5.07;1.70;;;6.10;1.00;;;;;;8398250;28;20184;-64
2024/01/23 14:31:43;;;;;;;4.17;1.80;;;6.10;1.00;;;;;;8388649;28;20189;-65
2024/01/23 14:35:44;;;;;;;8.13;2.20;;;6.10;1.00;;;;;;8389855;28;20290;-64
2024/01/23 14:39:45;;;;;;;5.37;1.90;;;6.10;1.00;;;;;;8389982;28;20303;-65
2024/01/23 14:43:46;;;;;;;7.50;2.20;;;6.10;1.00;;;;;;8394329;28;20185;-66
2024/01/23 14:47:46;;;;;;;8.60;2.00;;;6.00;1.00;;;;;;8390294;28;20189;-65
2024/01/23 14:51:47;;;;;;;6.97;2.10;;;6.00;1.00;;;;;;8394674;28;20207;-66
2024/01/23 14:55:48;;;;;;;6.40;2.10;;;6.00;1.00;;;;;;8390122;28;20341;-64
2024/01/23 14:59:49;;;;;;;5.30;1.67;;;6.00;1.00;;;;;;8398179;28;20263;-65
2024/01/23 15:03:50;;;;;;;6.17;1.80;;;6.00;1.00;;;;;;8389156;28;20181;-64
2024/01/23 15:07:51;;;;;;;7.87;1.70;;;6.00;1.00;;;;;;8386108;28;20181;-64
2024/01/23 15:11:51;;;;;;;5.70;1.93;;;6.00;1.00;;;;;;8391794;28;20263;-64
2024/01/23 15:15:52;;;;;;;9.50;2.17;;;6.00;1.00;;;;;;8392101;28;20180;-65
2024/01/23 15:19:53;;;;;;;6.07;2.20;;;6.00;1.00;;;;;;8395457;28;20300;-64
2024/01/23 15:23:54;;;;;;;6.90;1.87;;;5.90;1.00;;;;;;8388868;28;20177;-63
2024/01/23 15:27:55;;;;;;;10.17;2.00;;;5.90;1.00;;;;;;8390530;28;20211;-66
2024/01/23 15:31:58;;;;;;;7.53;1.80;;;5.90;1.00;;;;;;8397944;28;20272;-63
2024/01/23 15:35:58;;;;;;;11.57;2.10;;;5.90;1.00;;;;;;8395178;28;20197;-62
2024/01/23 15:39:59;;;;;;;6.53;1.83;;;5.90;1.00;;;;;;8394369;28;20235;-64
2024/01/23 15:44:00;;;;;;;8.07;2.60;;;5.90;1.00;;;;;;8395184;28;20179;-63
2024/01/23 15:48:01;;;;;;;6.80;2.10;;;5.80;1.00;;;;;;8389291;28;20189;-64
2024/01/23 15:52:02;;;;;;;8.23;2.50;;;5.70;1.00;;;;;;8395382;28;20182;-63
2024/01/23 15:56:03;;;;;;;8.57;2.67;;;5.60;1.00;;;;;;8392701;28;20181;-64
2024/01/23 16:00:05;;;;;;;10.37;2.40;;;5.60;1.00;;;;;;8395727;28;20248;-63
2024/01/23 16:04:06;;;;;;;8.50;2.33;;;5.60;1.00;;;;;;8393340;28;20185;-62
2024/01/23 16:08:07;;;;;;;7.40;2.17;;;5.50;1.00;;;;;;8399119;28;20232;-62
2024/01/23 16:12:08;;;;;;;12.30;2.37;;;5.40;1.00;;;;;;8390909;28;20181;-62
2024/01/23 16:16:09;;;;;;;11.93;2.60;;;5.30;1.00;;;;;;8391957;28;20242;-63
2024/01/23 16:20:10;;;;;;;12.47;2.63;;;5.20;1.00;;;;;;8389289;28;20213;-62
2024/01/23 16:24:11;;;;;;;10.00;2.40;;;5.30;1.00;;;;;;8392585;28;20177;-62
2024/01/23 16:28:12;;;;;;;6.40;1.97;;;5.40;1.00;;;;;;8393130;28;20185;-62
2024/01/23 16:32:13;;;;;;;11.03;2.27;;;5.40;1.00;;;;;;8388519;28;20192;-62
2024/01/23 16:36:13;;;;;;;6.73;2.00;;;5.40;1.00;;;;;;8390888;28;20223;-62
2024/01/23 16:40:15;;;;;;;7.10;1.70;;;5.40;1.00;;;;;;8394078;28;20235;-62
2024/01/23 16:44:16;;;;;;;11.03;2.47;;;5.40;1.00;;;;;;8389853;28;20225;-61
2024/01/23 16:48:16;;;;;;;7.27;2.57;;;5.40;1.00;;;;;;8389335;28;20245;-61
2024/01/23 16:52:17;;;;;;;4.97;2.00;;;5.40;1.00;;;;;;8390664;28;20204;-62
2024/01/23 16:56:18;;;;;;;10.47;2.97;;;5.50;1.00;;;;;;8392625;28;20189;-62
2024/01/23 17:00:19;;;;;;;10.10;2.40;;;5.50;1.00;;;;;;8389261;28;20316;-62
2024/01/23 17:04:19;;;;;;;7.50;3.07;;;5.60;1.00;;;;;;8387851;28;20202;-62
2024/01/23 17:08:20;;;;;;;6.73;2.33;;;5.60;1.00;;;;;;8388435;28;20191;-62
2024/01/23 17:12:21;;;;;;;6.63;2.67;;;5.60;1.00;;;;;;8388087;28;20179;-62
2024/01/23 17:16:25;;;;;;;9.13;2.57;;;5.50;1.00;;;;;;8391738;28;20192;-61
2024/01/23 17:20:26;;;;;;;11.03;3.00;;;5.60;1.00;;;;;;8387217;28;20201;-62
2024/01/23 17:24:26;;;;;;;8.27;2.50;;;5.60;1.00;;;;;;8390688;28;20172;-61
2024/01/23 17:28:27;;;;;;;6.63;2.30;;;5.60;1.00;;;;;;8391012;28;20213;-62
2024/01/23 17:32:28;;;;;;;10.13;2.70;;;5.50;1.00;;;;;;8386697;28;20242;-62
2024/01/23 17:36:29;;;;;;;11.73;2.30;;;5.50;1.00;;;;;;8388936;28;20400;-61
2024/01/23 17:40:30;;;;;;;9.10;2.80;;;5.40;1.00;;;;;;8390901;28;20200;-62
2024/01/23 17:44:31;;;;;;;9.67;2.40;;;5.40;1.00;;;;;;8389447;28;20213;-61
2024/01/23 17:48:32;;;;;;;8.23;2.77;;;5.40;1.00;;;;;;8391874;28;20250;-62
2024/01/23 17:52:33;;;;;;;9.83;2.70;;;5.50;1.00;;;;;;8393958;28;20204;-62
2024/01/23 17:56:35;;;;;;;7.60;2.93;;;5.40;1.00;;;;;;8383060;28;20185;-62
2024/01/23 18:00:36;;;;;;;10.10;2.37;;;5.30;1.00;;;;;;8385984;28;20336;-61
2024/01/23 18:04:37;;;;;;;8.00;2.30;;;5.30;1.00;;;;;;8388745;28;20180;-61
2024/01/23 18:08:38;;;;;;;11.30;2.43;;;5.30;1.00;;;;;;8393015;28;20185;-60
2024/01/23 18:12:39;;;;;;;10.30;3.07;;;5.20;1.00;;;;;;8388474;28;20245;-62
2024/01/23 18:16:40;;;;;;;7.40;2.53;;;5.20;1.00;;;;;;8389848;28;20264;-61
2024/01/23 18:20:40;;;;;;;9.57;2.80;;;5.20;1.00;;;;;;8392699;28;20180;-62
2024/01/23 18:24:42;;;;;;;6.67;2.77;;;5.10;1.00;;;;;;8397797;28;20192;-61
2024/01/23 18:28:43;;;;;;;8.93;2.40;;;5.10;1.00;;;;;;8388630;28;20268;-62
2024/01/23 18:32:44;;;;;;;10.43;2.40;;;5.00;1.00;;;;;;8391332;28;20215;-63
2024/01/23 18:36:45;;;;;;;10.07;2.80;;;5.00;1.00;;;;;;8395035;28;20209;-61
2024/01/23 18:40:46;;;;;;;10.20;2.63;;;4.90;1.00;;;;;;8386000;28;20193;-61
2024/01/23 18:44:46;;;;;;;6.47;2.27;;;5.00;1.00;;;;;;8387621;28;20308;-62
2024/01/23 18:48:50;;;;;;;6.63;3.00;;;5.10;1.00;;;;;;8388994;28;20200;-62
2024/01/23 18:52:51;;;;;;;6.67;2.63;;;5.00;1.00;;;;;;8391953;28;20189;-62
2024/01/23 18:56:52;;;;;;;10.07;3.23;;;4.90;1.00;;;;;;8389130;28;20355;-63
2024/01/23 19:00:52;;;;;;;10.20;3.63;;;4.80;1.00;;;;;;8400324;28;20204;-63
2024/01/23 19:04:53;;;;;;;10.97;3.73;;;4.70;1.00;;;;;;8400949;28;20370;-63
2024/01/23 19:08:54;;;;;;;10.47;4.73;;;4.60;1.00;;;;;;8395134;28;20244;-63
2024/01/23 19:12:55;;;;;;;11.23;3.63;;;4.50;1.00;;;;;;8395859;28;20453;-63
2024/01/23 19:16:56;;;;;;;11.00;3.70;;;4.40;1.00;;;;;;8395577;28;20197;-63
2024/01/23 19:20:57;;;;;;;10.13;4.23;;;4.20;1.00;;;;;;8392809;28;20196;-61
2024/01/23 19:24:58;;;;;;;14.77;4.47;;;4.00;1.00;;;;;;8395816;28;20188;-62
2024/01/23 19:28:58;;;;;;;11.13;4.10;;;3.80;1.00;;;;;;8394359;28;20196;-62
2024/01/23 19:32:59;;;;;;;12.40;3.97;;;3.70;1.00;;;;;;8393720;28;20294;-60
2024/01/23 19:37:00;;;;;;;13.97;4.00;;;3.60;1.00;;;;;;8400659;28;20314;-61
2024/01/23 19:41:01;;;;;;;9.73;4.17;;;3.50;1.00;;;;;;8406650;28;20275;-60
2024/01/23 19:45:02;;;;;;;8.87;3.73;;;3.40;1.00;;;;;;8395969;28;20195;-61
2024/01/23 19:49:03;;;;;;;9.33;3.60;;;3.30;1.00;;;;;;8395816;28;20262;-60
2024/01/23 19:53:04;;;;;;;10.13;4.00;;;3.10;1.00;;;;;;8394940;28;20254;-61
2024/01/23 19:57:05;;;;;;;11.23;4.00;;;3.00;1.00;;;;;;8396863;28;20212;-59
2024/01/23 20:01:06;;;;;;;14.30;4.87;;;2.90;1.00;;;;;;8389391;28;20214;-60
2024/01/23 20:05:11;;;;;;;11.37;4.90;;;2.90;1.00;;;;;;8394504;28;20185;-59
2024/01/23 20:09:12;;;;;;;11.83;4.67;;;2.90;1.00;;;;;;8389663;28;20193;-59
2024/01/23 20:13:13;;;;;;;10.43;4.60;;;2.80;1.00;;;;;;8393722;28;20227;-60
2024/01/23 20:17:13;;;;;;;11.00;4.03;;;2.90;1.00;;;;;;8392390;28;20233;-61
2024/01/23 20:21:14;;;;;;;12.93;5.00;;;2.80;1.00;;;;;;8395514;28;20301;-60
2024/01/23 20:25:17;;;;;;;12.17;4.73;;;2.90;1.00;;;;;;8397573;28;21613;-59
2024/01/23 20:29:17;;;;;;;13.50;5.13;;;3.00;1.00;;;;;;8393772;28;20234;-60
2024/01/23 20:33:18;;;;;;;13.90;5.03;;;3.00;1.00;;;;;;8391749;28;20278;-60
2024/01/23 20:37:20;;;;;;;11.47;4.57;;;3.00;1.00;;;;;;8391393;28;20213;-60
2024/01/23 20:41:21;;;;;;;10.77;4.23;;;3.00;1.00;;;;;;8390334;28;20185;-60
2024/01/23 20:45:22;;;;;;;13.10;4.80;;;2.90;1.00;;;;;;8392947;28;20184;-59
2024/01/23 20:49:22;;;;;;;11.60;4.67;;;2.90;1.00;;;;;;8393277;28;20187;-60
2024/01/23 20:53:23;;;;;;;9.83;4.17;;;2.90;1.00;;;;;;8394316;28;20195;-60
2024/01/23 20:57:24;;;;;;;8.20;3.93;;;2.90;1.00;;;;;;8394367;28;20207;-59
2024/01/23 21:01:28;;;;;;;8.97;3.23;;;3.00;1.00;;;;;;8391625;28;20207;-60
2024/01/23 21:05:29;;;;;;;8.20;3.27;;;3.00;1.00;;;;;;8400298;28;20192;-60
2024/01/23 21:09:30;;;;;;;11.17;3.87;;;3.00;1.00;;;;;;8394422;28;20272;-60
2024/01/23 21:13:31;;;;;;;12.10;3.90;;;3.00;1.00;;;;;;8400344;28;20188;-61
2024/01/23 21:17:32;;;;;;;10.23;4.47;;;2.90;1.00;;;;;;8395950;28;20197;-61
2024/01/23 21:21:33;;;;;;;8.83;3.30;;;2.90;1.00;;;;;;8394258;28;20181;-61